Dragonfly — DLBV — position and weather

sailwx.info

Track history (hours):
 
Tides and Currents Weather Stations Pressure Air Temp Water Temp Dewpoint Dewpoint Depression Visibility Wind Speed Wind Dir Waves Ship Positions

Dragonfly

Last reported at 2015-Jul-06 15:31 UTC. Time now 2015-Jul-07 15:21 UTC.
Position N 39°34' E 002°38'.

Type: Sailing vessel. MMSI: 211505290.

Date/timePositionNaut miles runAvg speedWind from/ knotsBaromVisibWave heightAir tempDewpointWater temp
2015-Jul-06 15:31N 39°34' E 002°38'0 0.5
2015-Jul-06 14:31N 39°34' E 002°38'5 4.7
2015-Jul-06 13:33N 39°30' E 002°41'6 5.6
2015-Jul-06 12:34N 39°24' E 002°43'5 4.6
2015-Jul-06 11:33N 39°20' E 002°46'4 4.4
2015-Jul-06 10:33N 39°16' E 002°49'5 4.5
2015-Jul-06 09:33N 39°13' E 002°52'5 4.6
2015-Jul-06 08:33N 39°09' E 002°56'0 0.0
2015-Jul-04 14:33N 39°09' E 002°56'6 6.0
2015-Jul-04 13:33N 39°15' E 002°58'5 0.2
2015-Jul-03 12:33N 39°20' E 002°59'6 6.5
2015-Jul-03 11:33N 39°21' E 002°50'6 6.3
2015-Jul-03 10:33N 39°24' E 002°43'4 4.4
2015-Jul-03 09:33N 39°28' E 002°42'3 3.1
2015-Jul-03 08:32N 39°31' E 002°44'13 0.6
2015-Jul-02 11:21N 39°27' E 002°28'5 6.6
2015-Jul-02 10:33N 39°29' E 002°21'3 0.1
2015-Jul-01 11:30N 39°30' E 002°24'6 6.8
2015-Jul-01 10:33N 39°27' E 002°31'7 6.9
2015-Jul-01 09:33N 39°32' E 002°38'2 2.1
2015-Jul-01 08:32N 39°34' E 002°38'0 0.0
2015-Jun-29 13:15N 39°34' E 002°38'0 0.0
2015-Jun-29 12:27N 39°34' E 002°38'3 3.3
2015-Jun-29 11:33N 39°31' E 002°40'7 7.3
2015-Jun-29 10:33N 39°25' E 002°44'7 7.2
2015-Jun-29 09:32N 39°18' E 002°48'7 7.2
2015-Jun-29 08:31N 39°12' E 002°53'4 0.3
2015-Jun-28 18:30N 39°09' E 002°56'0 0.1
2015-Jun-28 14:33N 39°09' E 002°56'5 5.3
2015-Jun-28 13:33N 39°14' E 002°56'4 4.0
2015-Jun-28 12:33N 39°18' E 002°58'2 0.1
2015-Jun-27 16:29N 39°20' E 002°59'0 0.0
2015-Jun-27 15:23N 39°20' E 002°59'2 1.8
2015-Jun-27 14:32N 39°20' E 002°57'9 6.1
2015-Jun-27 13:05N 39°22' E 002°46'7 4.3
2015-Jun-27 11:33N 39°28' E 002°42'4 4.1
2015-Jun-27 10:33N 39°32' E 002°40'3 1.1
2015-Jun-27 08:06N 39°34' E 002°38'  
Track history (hours):
 
Tides and Currents Weather Stations Pressure Air Temp Water Temp Dewpoint Dewpoint Depression Visibility Wind Speed Wind Dir Waves Ship Positions

Dragonfly

Last reported at 2015-Jul-06 15:31 UTC. Time now 2015-Jul-07 15:21 UTC.
Position N 39°34' E 002°38'.

Type: Sailing vessel. MMSI: 211505290.

Date/timePositionNaut miles runAvg speedWind from/ knotsBaromVisibWave heightAir tempDewpointWater temp
2015-Jul-06 15:31N 39°34' E 002°38'0 0.5
2015-Jul-06 14:31N 39°34' E 002°38'5 4.7
2015-Jul-06 13:33N 39°30' E 002°41'6 5.6
2015-Jul-06 12:34N 39°24' E 002°43'5 4.6
2015-Jul-06 11:33N 39°20' E 002°46'4 4.4
2015-Jul-06 10:33N 39°16' E 002°49'5 4.5
2015-Jul-06 09:33N 39°13' E 002°52'5 4.6
2015-Jul-06 08:33N 39°09' E 002°56'0 0.0
2015-Jul-04 14:33N 39°09' E 002°56'6 6.0
2015-Jul-04 13:33N 39°15' E 002°58'5 0.2
2015-Jul-03 12:33N 39°20' E 002°59'6 6.5
2015-Jul-03 11:33N 39°21' E 002°50'6 6.3
2015-Jul-03 10:33N 39°24' E 002°43'4 4.4
2015-Jul-03 09:33N 39°28' E 002°42'3 3.1
2015-Jul-03 08:32N 39°31' E 002°44'13 0.6
2015-Jul-02 11:21N 39°27' E 002°28'5 6.6
2015-Jul-02 10:33N 39°29' E 002°21'3 0.1
2015-Jul-01 11:30N 39°30' E 002°24'6 6.8
2015-Jul-01 10:33N 39°27' E 002°31'7 6.9
2015-Jul-01 09:33N 39°32' E 002°38'2 2.1
2015-Jul-01 08:32N 39°34' E 002°38'0 0.0
2015-Jun-29 13:15N 39°34' E 002°38'0 0.0
2015-Jun-29 12:27N 39°34' E 002°38'3 3.3
2015-Jun-29 11:33N 39°31' E 002°40'7 7.3
2015-Jun-29 10:33N 39°25' E 002°44'7 7.2
2015-Jun-29 09:32N 39°18' E 002°48'7 7.2
2015-Jun-29 08:31N 39°12' E 002°53'4 0.3
2015-Jun-28 18:30N 39°09' E 002°56'0 0.1
2015-Jun-28 14:33N 39°09' E 002°56'5 5.3
2015-Jun-28 13:33N 39°14' E 002°56'4 4.0
2015-Jun-28 12:33N 39°18' E 002°58'2 0.1
2015-Jun-27 16:29N 39°20' E 002°59'0 0.0
2015-Jun-27 15:23N 39°20' E 002°59'2 1.8
2015-Jun-27 14:32N 39°20' E 002°57'9 6.1
2015-Jun-27 13:05N 39°22' E 002°46'7 4.3
2015-Jun-27 11:33N 39°28' E 002°42'4 4.1
2015-Jun-27 10:33N 39°32' E 002°40'3 1.1
2015-Jun-27 08:06N 39°34' E 002°38'  

Dump ship's entire track history